Time;durP1;ratioP1;P1;durP2;ratioP2;P2;SDS_P1;SDS_P2;PMS_P1;PMS_P2;Temp;Humidity;BMP_temperature;BMP_pressure;BME280_temperature;BME280_humidity;BME280_pressure;Samples;Min_cycle;Max_cycle;Signal;HPM_P1;HPM_P2
2023/01/07 00:01:40;;;;;;;;;;;;;;;-143.48;100.00;118439.88;5056828;28;19909;-28
2023/01/07 00:04:06;;;;;;;;;;;;;;;-143.48;100.00;118439.88;5056084;28;19996;-28
2023/01/07 00:06:34;;;;;;;;;;;;;;;-143.48;100.00;118439.88;5056101;28;20331;-28
2023/01/07 00:08:59;;;;;;;;;;;;;;;-143.48;100.00;118439.88;5054455;28;19948;-28
2023/01/07 00:11:26;;;;;;;;;;;;;;;-143.48;100.00;118439.88;5054028;28;19956;-28
2023/01/07 00:13:52;;;;;;;;;;;;;;;-143.48;100.00;118439.88;5053960;28;19908;-29
2023/01/07 00:16:19;;;;;;;;;;;;;;;-143.48;100.00;118439.88;5053898;28;19908;-27
2023/01/07 00:18:44;;;;;;;;;;;;;;;-143.48;100.00;118439.88;5053777;28;19951;-26
2023/01/07 00:21:11;;;;;;;;;;;;;;;-143.48;100.00;118439.88;5053916;28;20472;-27
2023/01/07 00:23:37;;;;;;;;;;;;;;;-143.48;100.00;118439.88;5054425;28;19913;-27
2023/01/07 00:26:07;;;;;;;;;;;;;;;-143.48;100.00;118439.88;5056050;28;19916;-27
2023/01/07 00:28:33;;;;;;;;;;;;;;;-143.48;100.00;118439.88;5055613;28;19908;-26
2023/01/07 00:30:59;;;;;;;;;;;;;;;-143.48;100.00;118439.88;5055672;28;19909;-26
2023/01/07 00:33:27;;;;;;;;;;;;;;;-143.48;100.00;118439.88;5055429;28;19912;-26
2023/01/07 00:36:02;;;;;;;;;;;;;;;-143.48;100.00;118439.88;5055524;28;19908;-26
2023/01/07 00:38:27;;;;;;;;;;;;;;;-143.48;100.00;118439.88;5055417;28;19916;-26
2023/01/07 00:40:53;;;;;;;;;;;;;;;-143.48;100.00;118439.88;5055468;28;20314;-26
2023/01/07 00:43:18;;;;;;;;;;;;;;;-143.48;100.00;118439.88;5055294;28;19908;-27
2023/01/07 00:45:43;;;;;;;;;;;;;;;-143.48;100.00;118439.88;5055449;28;19908;-27
2023/01/07 00:48:08;;;;;;;;;;;;;;;-143.48;100.00;118439.88;5055290;28;19913;-27
2023/01/07 00:50:35;;;;;;;;;;;;;;;-143.48;100.00;118439.88;5037415;28;19912;-27
2023/01/07 00:53:00;;;;;;;;;;;;;;;-143.48;100.00;118439.88;5055109;28;19916;-27
2023/01/07 00:55:25;;;;;;;;;;;;;;;-143.48;100.00;118439.88;5055228;28;19909;-27
2023/01/07 00:57:51;;;;;;;;;;;;;;;-143.48;100.00;118439.88;5053992;28;19916;-27
2023/01/07 01:00:17;;;;;;;;;;;;;;;-143.48;100.00;118439.88;5055074;28;20372;-27
2023/01/07 01:02:43;;;;;;;;;;;;;;;-143.48;100.00;118439.88;5054829;28;19932;-28
2023/01/07 01:05:08;;;;;;;;;;;;;;;-143.48;99.58;118439.88;5054876;28;19909;-27
2023/01/07 01:07:34;;;;;;;;;;;;;;;-143.48;99.50;118439.88;5054963;28;20359;-27
2023/01/07 01:09:59;;;;;;;;;;;;;;;-143.48;99.20;118439.88;5055185;28;19915;-27
2023/01/07 01:12:25;;;;;;;;;;;;;;;-143.48;99.04;118439.88;5054732;28;19908;-27
2023/01/07 01:14:50;;;;;;;;;;;;;;;-143.48;99.35;118439.88;5037300;28;19954;-27
2023/01/07 01:17:15;;;;;;;;;;;;;;;-143.48;99.29;118439.88;5054371;28;19908;-27
2023/01/07 01:19:40;;;;;;;;;;;;;;;-143.48;99.04;118439.88;5053832;28;20376;-27
2023/01/07 01:22:05;;;;;;;;;;;;;;;-143.48;98.81;118439.88;5054710;28;19915;-27
2023/01/07 01:24:31;;;;;;;;;;;;;;;-143.48;98.19;118439.88;5054510;28;20011;-27
2023/01/07 01:26:56;;;;;;;;;;;;;;;-143.48;98.50;118439.88;5054644;28;19999;-27
2023/01/07 01:29:21;;;;;;;;;;;;;;;-143.48;98.39;118439.88;5054606;28;19909;-28
2023/01/07 01:31:47;;;;;;;;;;;;;;;-143.48;98.17;118439.88;5054489;28;19909;-27
2023/01/07 01:34:12;;;;;;;;;;;;;;;-143.48;98.13;118439.88;5054685;28;19915;-27
2023/01/07 01:36:38;;;;;;;;;;;;;;;-143.48;98.06;118439.88;5054433;28;19909;-27
2023/01/07 01:39:03;;;;;;;;;;;;;;;-143.48;98.30;118439.88;5054920;28;20054;-27
2023/01/07 01:41:29;;;;;;;;;;;;;;;-143.48;98.04;118439.88;5054594;28;20477;-27
2023/01/07 01:43:54;;;;;;;;;;;;;;;-143.48;98.03;118439.88;5054270;28;19916;-27
2023/01/07 01:46:25;;;;;;;;;;;;;;;-143.48;98.31;118439.88;5053557;28;20239;-27
2023/01/07 01:48:54;;;;;;;;;;;;;;;-143.48;97.80;118439.88;5054483;28;19908;-27
2023/01/07 01:51:21;;;;;;;;;;;;;;;-143.48;97.67;118439.88;5036186;28;19908;-27
2023/01/07 01:53:46;;;;;;;;;;;;;;;-143.48;97.98;118439.88;5054166;28;19952;-27
2023/01/07 01:56:15;;;;;;;;;;;;;;;-143.48;98.36;118439.88;5054090;28;19998;-27
2023/01/07 01:59:00;;;;;;;;;;;;;;;-143.48;98.50;118439.88;5054022;28;19931;-27
2023/01/07 02:01:25;;;;;;;;;;;;;;;-143.48;98.33;118439.88;5053398;28;20359;-27
2023/01/07 02:03:51;;;;;;;;;;;;;;;-143.48;98.22;118439.88;5054032;28;19967;-27
2023/01/07 02:06:19;;;;;;;;;;;;;;;-143.48;97.96;118439.88;5053893;28;20386;-27
2023/01/07 02:08:45;;;;;;;;;;;;;;;-143.48;98.22;118439.88;5054397;28;19948;-27
2023/01/07 02:11:28;;;;;;;;;;;;;;;-143.48;97.88;118439.88;5054158;28;19950;-27
2023/01/07 02:14:20;;;;;;;;;;;;;;;-143.48;98.01;118439.88;5054126;28;19908;-27
2023/01/07 02:16:52;;;;;;;;;;;;;;;-143.48;98.04;118439.88;5023220;28;19913;-27
2023/01/07 02:19:36;;;;;;;;;;;;;;;-143.48;97.79;118439.88;5053605;28;19991;-27
2023/01/07 02:22:16;;;;;;;;;;;;;;;-143.48;97.98;118439.88;5053596;28;19915;-34
2023/01/07 02:25:00;;;;;;;;;;;;;;;-143.48;98.43;118439.88;5053644;28;20372;-27
2023/01/07 02:27:32;;;;;;;;;;;;;;;-143.48;98.29;118439.88;5053571;28;19916;-27
2023/01/07 02:30:01;;;;;;;;;;;;;;;-143.48;98.28;118439.88;5053634;28;19909;-27
2023/01/07 02:32:42;;;;;;;;;;;;;;;-143.48;98.38;118439.88;5053956;28;20309;-27
2023/01/07 02:35:07;;;;;;;;;;;;;;;-143.48;98.65;118439.88;5053874;28;20308;-27
2023/01/07 02:37:41;;;;;;;;;;;;;;;-143.48;98.48;118439.88;5053600;28;19963;-27
2023/01/07 02:40:12;;;;;;;;;;;;;;;-143.48;98.47;118439.88;5053426;28;20007;-27
2023/01/07 02:42:45;;;;;;;;;;;;;;;-143.48;98.34;118439.88;5054036;28;19998;-27
2023/01/07 02:45:15;;;;;;;;;;;;;;;-143.48;98.58;118439.88;5053456;28;19913;-27
2023/01/07 02:47:43;;;;;;;;;;;;;;;-143.48;98.61;118439.88;5053673;28;19912;-27
2023/01/07 02:50:08;;;;;;;;;;;;;;;-143.48;99.02;118439.88;5053448;28;19916;-27
2023/01/07 02:52:34;;;;;;;;;;;;;;;-143.48;98.55;118439.88;5053324;28;19909;-27
2023/01/07 02:55:09;;;;;;;;;;;;;;;-143.48;98.57;118439.88;5053431;28;19909;-27
2023/01/07 02:57:34;;;;;;;;;;;;;;;-143.48;98.63;118439.88;5036934;28;19935;-27
2023/01/07 03:00:13;;;;;;;;;;;;;;;-143.48;98.25;118439.88;5057571;28;19908;-27
2023/01/07 03:02:38;;;;;;;;;;;;;;;-143.48;98.40;118439.88;5057322;28;20367;-28
2023/01/07 03:05:26;;;;;;;;;;;;;;;-143.48;98.35;118439.88;5057467;28;19967;-27
2023/01/07 03:08:08;;;;;;;;;;;;;;;-143.48;98.55;118439.88;5057768;28;19909;-28
2023/01/07 03:10:44;;;;;;;;;;;;;;;-143.48;98.61;118439.88;5057751;28;19909;-27
2023/01/07 03:13:16;;;;;;;;;;;;;;;-143.48;98.49;118439.88;5057360;28;19915;-27
2023/01/07 03:15:53;;;;;;;;;;;;;;;-143.48;98.57;118439.88;5057622;28;20006;-27
2023/01/07 03:18:23;;;;;;;;;;;;;;;-143.48;97.75;118439.88;5056933;28;19908;-27
2023/01/07 03:20:50;;;;;;;;;;;;;;;-143.48;98.09;118439.88;5056929;28;19915;-27
2023/01/07 03:23:17;;;;;;;;;;;;;;;-143.48;97.78;118439.88;5056938;28;19996;-27
2023/01/07 03:25:43;;;;;;;;;;;;;;;-143.48;98.22;118439.88;5057297;28;19917;-27
2023/01/07 03:28:09;;;;;;;;;;;;;;;-143.48;98.11;118439.88;5057087;28;19908;-27
2023/01/07 03:30:36;;;;;;;;;;;;;;;-143.48;98.15;118439.88;5038904;28;19943;-27
2023/01/07 03:33:06;;;;;;;;;;;;;;;-143.48;98.10;118439.88;5056746;28;19915;-27
2023/01/07 03:35:33;;;;;;;;;;;;;;;-143.48;97.80;118439.88;5056664;28;19908;-27
2023/01/07 03:38:00;;;;;;;;;;;;;;;-143.48;97.99;118439.88;5056808;28;20007;-27
2023/01/07 03:40:26;;;;;;;;;;;;;;;-143.48;97.77;118439.88;5056601;28;19952;-27
2023/01/07 03:42:52;;;;;;;;;;;;;;;-143.48;97.50;118439.88;5056584;28;19978;-26
2023/01/07 03:45:19;;;;;;;;;;;;;;;-143.48;97.40;118439.88;5056763;28;19919;-27
2023/01/07 03:47:46;;;;;;;;;;;;;;;-143.48;97.34;118439.88;5056954;28;19916;-27
2023/01/07 03:50:11;;;;;;;;;;;;;;;-143.48;97.61;118439.88;5056817;28;19908;-27
2023/01/07 03:52:37;;;;;;;;;;;;;;;-143.48;97.44;118439.88;5056375;28;19959;-27
2023/01/07 03:55:03;;;;;;;;;;;;;;;-143.48;97.37;118439.88;5056969;28;19912;-27
2023/01/07 03:57:29;;;;;;;;;;;;;;;-143.48;97.51;118439.88;5056297;28;19912;-27
2023/01/07 03:59:54;;;;;;;;;;;;;;;-143.48;97.46;118439.88;5056251;28;19970;-27
2023/01/07 04:02:19;;;;;;;;;;;;;;;-143.48;97.73;118439.88;5056408;28;19909;-27
2023/01/07 04:04:44;;;;;;;;;;;;;;;-143.48;97.75;118439.88;5055963;28;19917;-27
2023/01/07 04:07:10;;;;;;;;;;;;;;;-143.48;97.95;118439.88;5056090;28;19916;-27
2023/01/07 04:09:35;;;;;;;;;;;;;;;-143.48;98.04;118439.88;5055201;28;19908;-27
2023/01/07 04:12:00;;;;;;;;;;;;;;;-143.48;98.13;118439.88;5056083;28;19908;-27
2023/01/07 04:14:25;;;;;;;;;;;;;;;-143.48;97.88;118439.88;5056519;28;19909;-27
2023/01/07 04:16:50;;;;;;;;;;;;;;;-143.48;98.00;118439.88;5056007;28;20383;-27
2023/01/07 04:19:16;;;;;;;;;;;;;;;-143.48;97.95;118439.88;5055905;28;19908;-27
2023/01/07 04:21:41;;;;;;;;;;;;;;;-143.48;97.75;118439.88;5055823;28;19936;-27
2023/01/07 04:24:07;;;;;;;;;;;;;;;-143.48;97.64;118439.88;5056253;28;19935;-27
2023/01/07 04:26:32;;;;;;;;;;;;;;;-143.48;97.45;118439.88;5056018;28;20273;-27
2023/01/07 04:28:58;;;;;;;;;;;;;;;-143.48;97.26;118439.88;5056047;28;20383;-26
2023/01/07 04:31:23;;;;;;;;;;;;;;;-143.48;97.26;118439.88;5055636;28;19909;-27
2023/01/07 04:33:48;;;;;;;;;;;;;;;-143.48;97.19;118439.88;5055934;28;19909;-27
2023/01/07 04:36:13;;;;;;;;;;;;;;;-143.48;97.43;118439.88;5055662;28;20403;-27
2023/01/07 04:38:39;;;;;;;;;;;;;;;-143.48;97.22;118439.88;5055827;28;19908;-27
2023/01/07 04:41:04;;;;;;;;;;;;;;;-143.48;97.29;118439.88;5055755;28;19912;-27
2023/01/07 04:43:29;;;;;;;;;;;;;;;-143.48;96.96;118439.88;5055916;28;20348;-27
2023/01/07 04:45:54;;;;;;;;;;;;;;;-143.48;96.93;118439.88;5055687;28;20024;-27
2023/01/07 04:48:19;;;;;;;;;;;;;;;-143.48;97.30;118439.88;5055922;28;19933;-27
2023/01/07 04:50:45;;;;;;;;;;;;;;;-143.48;97.17;118439.88;5055813;28;20367;-27
2023/01/07 04:53:11;;;;;;;;;;;;;;;-143.48;97.12;118439.88;5055202;28;19909;-27
2023/01/07 04:55:36;;;;;;;;;;;;;;;-143.48;96.78;118439.88;5055804;28;19915;-27
2023/01/07 04:58:02;;;;;;;;;;;;;;;-143.48;97.09;118439.88;5055990;28;19909;-27
2023/01/07 05:00:27;;;;;;;;;;;;;;;-143.48;96.82;118439.88;5055412;28;19915;-27
2023/01/07 05:02:52;;;;;;;;;;;;;;;-143.48;96.39;118439.88;5054918;28;19916;-27
2023/01/07 05:05:17;;;;;;;;;;;;;;;-143.48;96.42;118439.88;5055514;28;19962;-27
2023/01/07 05:07:42;;;;;;;;;;;;;;;-143.48;96.40;118439.88;5054890;28;19916;-27
2023/01/07 05:10:08;;;;;;;;;;;;;;;-143.48;96.50;118439.88;5055502;28;19908;-27
2023/01/07 05:12:34;;;;;;;;;;;;;;;-143.48;96.88;118439.88;5054870;28;19916;-27
2023/01/07 05:14:59;;;;;;;;;;;;;;;-143.48;97.17;118439.88;5054751;28;19917;-27
2023/01/07 05:17:24;;;;;;;;;;;;;;;-143.48;97.38;118439.88;5055139;28;19955;-27
2023/01/07 05:19:49;;;;;;;;;;;;;;;-143.48;97.32;118439.88;5055084;28;19948;-27
2023/01/07 05:22:14;;;;;;;;;;;;;;;-143.48;97.22;118439.88;5055375;28;19919;-27
2023/01/07 05:24:39;;;;;;;;;;;;;;;-143.48;97.06;118439.88;5054884;28;19912;-27
2023/01/07 05:27:05;;;;;;;;;;;;;;;-143.48;96.74;118439.88;5054584;28;20417;-27
2023/01/07 05:29:30;;;;;;;;;;;;;;;-143.48;96.81;118439.88;5054608;28;19951;-27
2023/01/07 05:31:55;;;;;;;;;;;;;;;-143.48;96.88;118439.88;5054836;28;19909;-27
2023/01/07 05:34:20;;;;;;;;;;;;;;;-143.48;96.53;118439.88;5054967;28;19909;-27
2023/01/07 05:36:45;;;;;;;;;;;;;;;-143.48;96.69;118439.88;5054682;28;20371;-27
2023/01/07 05:39:11;;;;;;;;;;;;;;;-143.48;96.52;118439.88;5054360;28;19996;-27
2023/01/07 05:41:36;;;;;;;;;;;;;;;-143.48;96.35;118439.88;5054939;28;19961;-27
2023/01/07 05:44:01;;;;;;;;;;;;;;;-143.48;96.16;118439.88;5054204;28;20351;-27
2023/01/07 05:46:26;;;;;;;;;;;;;;;-143.48;95.89;118439.88;5053375;28;19916;-27
2023/01/07 05:48:53;;;;;;;;;;;;;;;-143.48;95.61;118439.88;5052212;28;19975;-27
2023/01/07 05:51:18;;;;;;;;;;;;;;;-143.48;95.51;118439.88;5052023;28;19958;-27
2023/01/07 05:53:43;;;;;;;;;;;;;;;-143.48;95.01;118439.88;5052136;28;20007;-27
2023/01/07 05:56:08;;;;;;;;;;;;;;;-143.48;95.16;118439.88;5052135;28;19909;-27
2023/01/07 05:58:34;;;;;;;;;;;;;;;-143.48;95.08;118439.88;5051989;28;19912;-27
2023/01/07 06:00:59;;;;;;;;;;;;;;;-143.48;94.81;118439.88;5052023;28;19909;-27
2023/01/07 06:03:24;;;;;;;;;;;;;;;-143.48;95.23;118439.88;5053526;28;19967;-27
2023/01/07 06:05:49;;;;;;;;;;;;;;;-143.48;95.13;118439.88;5054000;28;19950;-26
2023/01/07 06:08:15;;;;;;;;;;;;;;;-143.48;94.82;118439.88;5054484;28;19909;-27
2023/01/07 06:10:41;;;;;;;;;;;;;;;-143.48;94.72;118439.88;5053887;28;19947;-27
2023/01/07 06:13:06;;;;;;;;;;;;;;;-143.48;94.72;118439.88;5054157;28;19908;-27
2023/01/07 06:15:32;;;;;;;;;;;;;;;-143.48;95.03;118439.88;5053946;28;20287;-27
2023/01/07 06:17:57;;;;;;;;;;;;;;;-143.48;95.01;118439.88;5036009;28;19915;-27
2023/01/07 06:20:22;;;;;;;;;;;;;;;-143.48;94.62;118439.88;5053746;28;19908;-27
2023/01/07 06:22:48;;;;;;;;;;;;;;;-143.48;94.78;118439.88;5053837;28;19909;-28
2023/01/07 06:25:13;;;;;;;;;;;;;;;-143.48;94.81;118439.88;5053743;28;19912;-27
2023/01/07 06:27:39;;;;;;;;;;;;;;;-143.48;94.87;118439.88;5054044;28;19912;-27
2023/01/07 06:30:05;;;;;;;;;;;;;;;-143.48;94.74;118439.88;5053966;28;19966;-27
2023/01/07 06:32:30;;;;;;;;;;;;;;;-143.48;94.66;118439.88;5057401;28;19908;-27
2023/01/07 06:34:55;;;;;;;;;;;;;;;-143.48;94.97;118439.88;5060869;28;19908;-27
2023/01/07 06:37:20;;;;;;;;;;;;;;;-143.48;94.82;118439.88;5060589;28;19909;-27
2023/01/07 06:39:46;;;;;;;;;;;;;;;-143.48;95.16;118439.88;5060289;28;19931;-27
2023/01/07 06:42:11;;;;;;;;;;;;;;;-143.48;94.89;118439.88;5060216;28;19916;-27
2023/01/07 06:44:36;;;;;;;;;;;;;;;-143.48;95.03;118439.88;5060376;28;19954;-28
2023/01/07 06:47:01;;;;;;;;;;;;;;;-143.48;95.10;118439.88;5060553;28;20018;-27
2023/01/07 06:49:26;;;;;;;;;;;;;;;-143.48;94.86;118439.88;5060190;28;19909;-26
2023/01/07 06:51:52;;;;;;;;;;;;;;;-143.48;94.33;118439.88;5060413;28;19958;-27
2023/01/07 06:54:17;;;;;;;;;;;;;;;-143.48;94.84;118439.88;5060041;28;19913;-27
2023/01/07 06:56:42;;;;;;;;;;;;;;;-143.48;94.62;118439.88;5060331;28;19909;-27
2023/01/07 06:59:08;;;;;;;;;;;;;;;-143.48;94.54;118439.88;5060335;28;20343;-27
2023/01/07 07:01:33;;;;;;;;;;;;;;;-143.48;94.46;118439.88;5060169;28;19947;-27
2023/01/07 07:03:59;;;;;;;;;;;;;;;-143.48;94.65;118439.88;5059805;28;19960;-27
2023/01/07 07:06:24;;;;;;;;;;;;;;;-143.48;94.19;118439.88;5060321;28;19912;-27
2023/01/07 07:08:49;;;;;;;;;;;;;;;-143.48;94.20;118439.88;5060050;28;19909;-28
2023/01/07 07:11:14;;;;;;;;;;;;;;;-143.48;94.43;118439.88;5060342;28;19919;-27
2023/01/07 07:13:39;;;;;;;;;;;;;;;-143.48;94.14;118439.88;5060329;28;19986;-27
2023/01/07 07:16:05;;;;;;;;;;;;;;;-143.48;94.01;118439.88;5059852;28;19908;-27
2023/01/07 07:18:30;;;;;;;;;;;;;;;-143.48;94.07;118439.88;5060268;28;19909;-28
2023/01/07 07:20:57;;;;;;;;;;;;;;;-143.48;94.03;118439.88;5059979;28;19908;-27
2023/01/07 07:23:22;;;;;;;;;;;;;;;-143.48;93.76;118439.88;5059954;28;19909;-27
2023/01/07 07:25:47;;;;;;;;;;;;;;;-143.48;93.43;118439.88;5059874;28;20371;-27
2023/01/07 07:28:12;;;;;;;;;;;;;;;-143.48;93.14;118439.88;5059786;28;19909;-27
2023/01/07 07:30:38;;;;;;;;;;;;;;;-143.48;93.46;118439.88;5060285;28;19908;-28
2023/01/07 07:33:03;;;;;;;;;;;;;;;-143.48;92.74;118439.88;5041805;28;20301;-28
2023/01/07 07:35:29;;;;;;;;;;;;;;;-143.48;92.56;118439.88;5059709;28;19947;-27
2023/01/07 07:37:54;;;;;;;;;;;;;;;-143.48;92.35;118439.88;5057719;28;19963;-28
2023/01/07 07:40:19;;;;;;;;;;;;;;;-143.48;92.05;118439.88;5059888;28;19908;-27
2023/01/07 07:42:45;;;;;;;;;;;;;;;-143.48;91.09;118439.88;5059546;28;19909;-28
2023/01/07 07:45:10;;;;;;;;;;;;;;;-143.48;90.75;118439.88;5056326;28;19936;-28
2023/01/07 07:47:35;;;;;;;;;;;;;;;-143.48;90.40;118439.88;5057007;28;19909;-27
2023/01/07 07:50:01;;;;;;;;;;;;;;;-143.48;90.25;118439.88;5056548;28;19999;-27
2023/01/07 07:52:26;;;;;;;;;;;;;;;-143.48;89.62;118439.88;5056433;28;19909;-27
2023/01/07 07:54:51;;;;;;;;;;;;;;;-143.48;89.23;118439.88;5056207;28;19955;-27
2023/01/07 07:57:16;;;;;;;;;;;;;;;-143.48;88.51;118439.88;5056776;28;19908;-28
2023/01/07 07:59:41;;;;;;;;;;;;;;;-143.48;88.12;118439.88;5056465;28;20386;-28
2023/01/07 08:02:11;;;;;;;;;;;;;;;-143.48;87.08;118439.88;5056649;28;19909;-27
2023/01/07 08:04:37;;;;;;;;;;;;;;;-143.48;86.47;118439.88;5055853;28;19916;-27
2023/01/07 08:07:02;;;;;;;;;;;;;;;-143.48;86.22;118439.88;5056067;28;19916;-28
2023/01/07 08:09:27;;;;;;;;;;;;;;;-143.48;85.70;118439.88;5056230;28;19909;-28
2023/01/07 08:11:53;;;;;;;;;;;;;;;-143.48;85.26;118439.88;5055859;28;20360;-28
2023/01/07 08:14:18;;;;;;;;;;;;;;;-143.48;85.35;118439.88;5056455;28;19988;-27
2023/01/07 08:16:44;;;;;;;;;;;;;;;-143.48;84.23;118439.88;5055836;28;19913;-27
2023/01/07 08:19:09;;;;;;;;;;;;;;;-143.48;84.40;118439.88;5055892;28;19995;-27
2023/01/07 08:21:35;;;;;;;;;;;;;;;-143.48;83.54;118439.88;5055638;28;20363;-27
2023/01/07 08:24:00;;;;;;;;;;;;;;;-143.48;83.09;118439.88;5056150;28;19912;-27
2023/01/07 08:26:25;;;;;;;;;;;;;;;-143.48;83.35;118439.88;5055984;28;20312;-28
2023/01/07 08:28:50;;;;;;;;;;;;;;;-143.48;82.54;118439.88;5055668;28;19909;-27
2023/01/07 08:31:15;;;;;;;;;;;;;;;-143.48;82.23;118439.88;5055904;28;19913;-27
2023/01/07 08:33:40;;;;;;;;;;;;;;;-143.48;82.88;118439.88;5055406;28;19915;-27
2023/01/07 08:36:07;;;;;;;;;;;;;;;-143.48;81.93;118439.88;5055506;28;19908;-26
2023/01/07 08:38:33;;;;;;;;;;;;;;;-143.48;81.60;118439.88;5021190;28;20264;-27
2023/01/07 08:40:58;;;;;;;;;;;;;;;-143.48;81.68;118439.88;5055327;28;19915;-28
2023/01/07 08:43:24;;;;;;;;;;;;;;;-143.48;81.60;118439.88;5037555;28;19916;-27
2023/01/07 08:45:50;;;;;;;;;;;;;;;-143.48;81.38;118439.88;5055340;28;19919;-28
2023/01/07 08:48:15;;;;;;;;;;;;;;;-143.48;80.95;118439.88;5055397;28;19958;-27
2023/01/07 08:50:40;;;;;;;;;;;;;;;-143.48;80.92;118439.88;5037413;28;19999;-27
2023/01/07 08:53:05;;;;;;;;;;;;;;;-143.48;80.69;118439.88;5054992;28;19916;-27
2023/01/07 08:55:31;;;;;;;;;;;;;;;-143.48;80.05;118439.88;5054630;28;19908;-27
2023/01/07 08:57:56;;;;;;;;;;;;;;;-143.48;80.02;118439.88;5055905;28;19995;-27
2023/01/07 09:00:21;;;;;;;;;;;;;;;-143.48;80.28;118439.88;5055102;28;20383;-28
2023/01/07 09:02:47;;;;;;;;;;;;;;;-143.48;79.62;118439.88;5036971;28;19944;-28
2023/01/07 09:05:12;;;;;;;;;;;;;;;-143.48;79.24;118439.88;5054369;28;19908;-27
2023/01/07 09:07:37;;;;;;;;;;;;;;;-143.48;79.93;118439.88;5054840;28;19912;-28
2023/01/07 09:10:03;;;;;;;;;;;;;;;-143.48;79.54;118439.88;5054684;28;19909;-27
2023/01/07 09:12:28;;;;;;;;;;;;;;;-143.48;79.41;118439.88;5053901;28;20292;-27
2023/01/07 09:14:53;;;;;;;;;;;;;;;-143.48;78.59;118439.88;5055164;28;20007;-28
2023/01/07 09:17:18;;;;;;;;;;;;;;;-143.48;78.24;118439.88;5055322;28;20273;-27
2023/01/07 09:19:44;;;;;;;;;;;;;;;-143.48;77.79;118439.88;5055071;28;19912;-27
2023/01/07 09:22:09;;;;;;;;;;;;;;;-143.48;76.96;118439.88;5054169;28;19908;-27
2023/01/07 09:24:34;;;;;;;;;;;;;;;-143.48;76.59;118439.88;5054355;28;19927;-27
2023/01/07 09:26:59;;;;;;;;;;;;;;;-143.48;76.09;118439.88;5036544;28;20387;-27
2023/01/07 09:29:24;;;;;;;;;;;;;;;-143.48;75.97;118439.88;5036500;28;19971;-27
2023/01/07 09:31:53;;;;;;;;;;;;;;;-143.48;75.86;118439.88;5054446;28;20278;-27
2023/01/07 09:34:18;;;;;;;;;;;;;;;-143.48;75.26;118439.88;5054350;28;19908;-27
2023/01/07 09:36:43;;;;;;;;;;;;;;;-143.48;74.01;118439.88;5054471;28;20385;-27
2023/01/07 09:39:11;;;;;;;;;;;;;;;-143.48;74.14;118439.88;5054091;28;19962;-27
2023/01/07 09:41:45;;;;;;;;;;;;;;;-143.48;74.09;118439.88;5053811;28;19909;-27
2023/01/07 09:44:19;;;;;;;;;;;;;;;-143.48;72.97;118439.88;5054014;28;19913;-27
2023/01/07 09:46:47;;;;;;;;;;;;;;;-143.48;72.51;118439.88;5052166;28;19928;-27
2023/01/07 09:49:17;;;;;;;;;;;;;;;-143.48;72.61;118439.88;5034113;28;19920;-27
2023/01/07 09:51:44;;;;;;;;;;;;;;;-143.48;72.29;118439.88;5032496;28;19955;-28
2023/01/07 09:54:28;;;;;;;;;;;;;;;-143.48;72.22;118439.88;5052274;28;19909;-28
2023/01/07 09:56:53;;;;;;;;;;;;;;;-143.48;71.41;118439.88;5051600;28;19919;-27
2023/01/07 09:59:18;;;;;;;;;;;;;;;-143.48;71.08;118439.88;5052152;28;19908;-27
2023/01/07 10:02:10;;;;;;;;;;;;;;;-143.48;71.61;118439.88;5054201;28;19912;-27
2023/01/07 10:04:35;;;;;;;;;;;;;;;-143.48;69.87;118439.88;5053067;28;19944;-27
2023/01/07 10:07:04;;;;;;;;;;;;;;;-143.48;69.16;118439.88;5034788;28;19908;-28
2023/01/07 10:09:47;;;;;;;;;;;;;;;-143.48;68.00;118439.88;5053146;28;19909;-27
2023/01/07 10:12:21;;;;;;;;;;;;;;;-143.48;67.50;118439.88;5051322;28;19908;-28
2023/01/07 10:14:49;;;;;;;;;;;;;;;-143.48;67.31;118439.88;5052917;28;19999;-28
2023/01/07 10:17:30;;;;;;;;;;;;;;;-143.48;67.36;118439.88;5053819;28;19932;-27
2023/01/07 10:20:00;;;;;;;;;;;;;;;-143.48;67.80;118439.88;5053744;28;19967;-27
2023/01/07 10:22:31;;;;;;;;;;;;;;;-143.48;67.67;118439.88;5053719;28;19915;-28
2023/01/07 10:25:00;;;;;;;;;;;;;;;-143.48;67.15;118439.88;5053951;28;19914;-27
2023/01/07 10:27:31;;;;;;;;;;;;;;;-143.48;67.32;118439.88;5053549;28;19912;-28
2023/01/07 10:30:00;;;;;;;;;;;;;;;-143.48;67.38;118439.88;5053613;28;20279;-27
2023/01/07 10:32:28;;;;;;;;;;;;;;;-143.48;66.60;118439.88;5053523;28;19977;-28
2023/01/07 10:34:55;;;;;;;;;;;;;;;-143.48;67.35;118439.88;5053795;28;19909;-27
2023/01/07 10:37:25;;;;;;;;;;;;;;;-143.48;67.71;118439.88;5053515;28;19909;-27
2023/01/07 10:39:53;;;;;;;;;;;;;;;-143.48;64.69;118439.88;5053490;28;19908;-28
2023/01/07 10:42:18;;;;;;;;;;;;;;;-143.48;61.84;118439.88;5053129;28;19908;-28
2023/01/07 10:45:02;;;;;;;;;;;;;;;-143.48;53.69;118439.88;5053317;28;19920;-28
2023/01/07 10:47:46;;;;;;;;;;;;;;;-143.48;51.74;118439.88;5054142;28;19948;-28
2023/01/07 10:50:30;;;;;;;;;;;;;;;-143.48;52.31;118439.88;5053597;28;20276;-28
2023/01/07 10:52:55;;;;;;;;;;;;;;;-143.48;47.41;118439.88;5053282;28;20354;-27
2023/01/07 10:55:29;;;;;;;;;;;;;;;-143.48;45.88;118439.88;5053401;28;20026;-28
2023/01/07 10:57:55;;;;;;;;;;;;;;;-143.48;51.37;118439.88;5053838;28;19952;-28
2023/01/07 11:00:20;;;;;;;;;;;;;;;-143.48;53.44;118439.88;5053199;28;19955;-28
2023/01/07 11:02:49;;;;;;;;;;;;;;;-143.48;56.49;118439.88;5053385;28;19955;-28
2023/01/07 11:05:17;;;;;;;;;;;;;;;-143.48;57.35;118439.88;5053102;28;20006;-28
2023/01/07 11:07:43;;;;;;;;;;;;;;;-143.48;59.21;118439.88;5051694;28;19908;-28
2023/01/07 11:10:13;;;;;;;;;;;;;;;-143.48;58.98;118439.88;5053255;28;19962;-28
2023/01/07 11:12:41;;;;;;;;;;;;;;;-143.48;59.68;118439.88;5053171;28;20383;-28
2023/01/07 11:15:12;;;;;;;;;;;;;;;-143.48;60.28;118439.88;5035272;28;19909;-28
2023/01/07 11:17:46;;;;;;;;;;;;;;;-143.48;60.59;118439.88;5053539;28;19920;-27
2023/01/07 11:20:11;;;;;;;;;;;;;;;-143.48;60.63;118439.88;5056813;28;19909;-28
2023/01/07 11:22:37;;;;;;;;;;;;;;;-143.48;60.32;118439.88;5057294;28;19916;-28
2023/01/07 11:25:23;;;;;;;;;;;;;;;-143.48;60.80;118439.88;5056651;28;19913;-28
2023/01/07 11:27:49;;;;;;;;;;;;;;;-143.48;60.70;118439.88;5043463;28;19909;-28
2023/01/07 11:30:23;;;;;;;;;;;;;;;-143.48;60.62;118439.88;5056703;28;19912;-28
2023/01/07 11:32:54;;;;;;;;;;;;;;;-143.48;61.49;118439.88;5056884;28;19977;-28
2023/01/07 11:35:21;;;;;;;;;;;;;;;-143.48;60.68;118439.88;5057110;28;19909;-28
2023/01/07 11:37:47;;;;;;;;;;;;;;;-143.48;60.77;118439.88;5056870;28;19909;-28
2023/01/07 11:40:12;;;;;;;;;;;;;;;-143.48;60.48;118439.88;5056641;28;19915;-28
2023/01/07 11:42:56;;;;;;;;;;;;;;;-143.48;59.92;118439.88;5056367;28;19999;-28
2023/01/07 11:45:23;;;;;;;;;;;;;;;-143.48;60.47;118439.88;5056438;28;20013;-28
2023/01/07 11:47:55;;;;;;;;;;;;;;;-143.48;60.81;118439.88;5056590;28;20356;-28
2023/01/07 11:50:22;;;;;;;;;;;;;;;-143.48;60.65;118439.88;5056255;28;19947;-28
2023/01/07 11:52:54;;;;;;;;;;;;;;;-143.48;60.32;118439.88;5056154;28;19909;-28
2023/01/07 11:55:19;;;;;;;;;;;;;;;-143.48;60.48;118439.88;5056468;28;19987;-28
2023/01/07 11:57:51;;;;;;;;;;;;;;;-143.48;60.06;118439.88;5055368;28;20478;-29
2023/01/07 12:00:16;;;;;;;;;;;;;;;-143.48;59.65;118439.88;5055465;28;20295;-28
2023/01/07 12:02:43;;;;;;;;;;;;;;;-143.48;59.53;118439.88;5055200;28;19916;-29
2023/01/07 12:05:22;;;;;;;;;;;;;;;-143.48;59.96;118439.88;5038080;28;19916;-28
2023/01/07 12:07:48;;;;;;;;;;;;;;;-143.48;59.79;118439.88;5055892;28;19916;-28
2023/01/07 12:10:30;;;;;;;;;;;;;;;-143.48;59.24;118439.88;5035845;28;19912;-28
2023/01/07 12:12:57;;;;;;;;;;;;;;;-143.48;58.45;118439.88;5053702;28;20389;-28
2023/01/07 12:15:44;;;;;;;;;;;;;;;-143.48;58.69;118439.88;5053552;28;20390;-28
2023/01/07 12:18:35;;;;;;;;;;;;;;;-143.48;59.13;118439.88;5053451;28;19908;-28